Delong, Illinois
Current Conditions -  °F | °C
As of 11:15 PM on Friday 28 Nov 2014 (Local Time) from KGBG Reporting Station
Clear Clear  
Wind Chill: 29°   Ceiling: Unl
Heat Index: 35°   Visibility: 10mi
Dew Point: 32°   Wind: 7mph
Humidity: 90%   Direction: 130°SE
Pressure: 29.79"   Gusts: NA
Location:  40.8742°N, 90.157°W
Report Text: KGBG 290515Z AUTO 13006KT 10SM CLR 02/00 A2979 RMK AO2 T00150000
Loading
Personal Weather Stations






























Interactive Weather Map New forecast layout! Learn more

10-Day Weather Forecast

Advertisements
Track Severe Weather on mobile